Time;durP1;ratioP1;P1;durP2;ratioP2;P2;SDS_P1;SDS_P2;PMS_P1;PMS_P2;Temp;Humidity;BMP_temperature;BMP_pressure;BME280_temperature;BME280_humidity;BME280_pressure;Samples;Min_cycle;Max_cycle;Signal;HPM_P1;HPM_P2
2021/12/02 00:01:35;;;;;;;8.48;1.60;;;4.90;98.60;;;;;;5091521;28;20488;-74
2021/12/02 00:04:01;;;;;;;8.60;1.47;;;5.00;98.30;;;;;;5091572;28;20409;-74
2021/12/02 00:06:27;;;;;;;12.60;1.73;;;5.00;97.90;;;;;;5074218;28;20448;-74
2021/12/02 00:08:53;;;;;;;10.60;1.57;;;5.00;98.10;;;;;;5109248;28;20454;-74
2021/12/02 00:11:19;;;;;;;12.13;1.92;;;4.90;97.60;;;;;;5091168;28;20406;-73
2021/12/02 00:21:15;;;;;;;14.75;1.70;;;4.80;98.80;;;;;;5109293;28;20397;-74
2021/12/02 00:23:50;;;;;;;7.38;1.40;;;4.80;98.90;;;;;;5109245;28;20789;-74
2021/12/02 00:26:17;;;;;;;8.82;1.38;;;4.70;98.90;;;;;;5073469;28;20515;-74
2021/12/02 00:28:43;;;;;;;10.23;1.50;;;4.70;99.30;;;;;;5109176;28;20405;-74
2021/12/02 00:31:18;;;;;;;8.53;1.30;;;4.70;99.50;;;;;;5091240;28;20403;-74
2021/12/02 00:33:50;;;;;;;13.50;1.67;;;4.60;99.80;;;;;;5090632;28;20412;-74
2021/12/02 00:36:17;;;;;;;8.07;1.25;;;4.60;99.70;;;;;;5108695;28;20958;-74
2021/12/02 00:38:46;;;;;;;7.47;1.17;;;4.60;99.50;;;;;;5109066;28;20400;-74
2021/12/02 00:41:16;;;;;;;6.20;0.95;;;4.60;99.00;;;;;;5108822;28;20404;-74
2021/12/02 00:43:44;;;;;;;7.13;0.90;;;4.60;98.80;;;;;;5090847;28;20412;-74
2021/12/02 00:46:12;;;;;;;7.93;1.00;;;4.60;97.60;;;;;;5090433;28;20428;-74
2021/12/02 00:48:39;;;;;;;5.78;0.73;;;4.60;97.50;;;;;;5090528;28;20415;-74
2021/12/02 00:51:06;;;;;;;9.05;1.13;;;4.60;97.90;;;;;;5090737;28;20435;-74
2021/12/02 00:53:34;;;;;;;5.63;0.80;;;4.60;97.60;;;;;;5108797;28;20415;-74
2021/12/02 00:56:04;;;;;;;6.70;0.87;;;4.60;97.90;;;;;;5090609;28;20407;-74
2021/12/02 00:58:30;;;;;;;5.38;0.80;;;4.60;97.10;;;;;;5073345;28;20405;-74
2021/12/02 01:00:56;;;;;;;6.22;1.00;;;4.60;96.90;;;;;;5090591;28;20907;-74
2021/12/02 01:03:24;;;;;;;6.55;1.10;;;4.70;97.60;;;;;;5090585;28;20565;-74
2021/12/02 01:05:52;;;;;;;4.88;1.00;;;4.70;97.60;;;;;;5073427;28;20513;-74
2021/12/02 01:08:18;;;;;;;8.15;1.10;;;4.70;97.50;;;;;;5090239;28;20524;-74
2021/12/02 01:10:44;;;;;;;9.30;1.15;;;4.70;97.40;;;;;;5090253;28;20404;-74
2021/12/02 01:13:10;;;;;;;7.80;1.20;;;4.70;97.40;;;;;;5073553;28;20759;-74
2021/12/02 01:15:36;;;;;;;6.13;0.90;;;4.70;98.00;;;;;;5090201;28;20920;-74
2021/12/02 01:18:02;;;;;;;8.02;1.20;;;4.70;98.10;;;;;;5090089;28;20400;-74
2021/12/02 01:20:30;;;;;;;7.00;1.00;;;4.70;98.30;;;;;;5090614;28;20408;-74
2021/12/02 01:22:59;;;;;;;11.32;1.33;;;4.70;98.70;;;;;;5091849;28;20415;-75
2021/12/02 01:25:27;;;;;;;9.18;1.02;;;4.60;98.80;;;;;;5094280;28;20796;-74
2021/12/02 01:27:55;;;;;;;8.23;1.02;;;4.60;99.00;;;;;;5077647;28;20424;-74
2021/12/02 01:30:21;;;;;;;10.13;1.57;;;4.50;99.40;;;;;;5094493;28;20407;-75
2021/12/02 01:32:48;;;;;;;7.47;1.05;;;4.50;99.70;;;;;;5079043;28;20445;-74
2021/12/02 01:35:15;;;;;;;;;;;4.50;99.80;;;;;;5096180;28;20067;-75
2021/12/02 01:37:41;;;;;;;;;;;4.50;99.80;;;;;;5096038;28;19986;-75
2021/12/02 01:40:07;;;;;;;;;;;4.50;99.90;;;;;;5096105;28;19978;-75
2021/12/02 01:42:39;;;;;;;6.53;1.05;;;4.50;99.90;;;;;;5095491;28;19926;-75
2021/12/02 01:45:05;;;;;;;8.00;0.80;;;4.50;99.90;;;;;;5095682;28;20043;-74
2021/12/02 01:47:33;;;;;;;10.60;1.60;;;4.50;99.90;;;;;;5111692;28;20909;-74
2021/12/02 01:50:01;;;;;;;5.97;0.52;;;4.50;99.90;;;;;;5113652;28;20519;-74
2021/12/02 01:52:31;;;;;;;5.88;0.68;;;4.50;99.90;;;;;;5078391;28;20087;-74
2021/12/02 01:55:09;;;;;;;6.20;0.65;;;4.50;99.90;;;;;;5095303;28;20080;-74
2021/12/02 01:57:39;;;;;;;4.32;0.90;;;4.50;99.90;;;;;;5094837;28;20043;-74
2021/12/02 02:00:15;;;;;;;9.63;1.77;;;4.50;99.90;;;;;;5076732;28;20057;-75
2021/12/02 02:02:41;;;;;;;9.93;0.90;;;4.50;99.90;;;;;;5094557;28;20422;-75
2021/12/02 02:05:12;;;;;;;6.35;0.90;;;4.50;99.90;;;;;;5094151;28;20050;-75
2021/12/02 02:08:02;;;;;;;9.02;0.95;;;4.40;99.90;;;;;;5090046;28;20060;-75
2021/12/02 02:10:30;;;;;;;12.77;1.05;;;4.20;99.90;;;;;;5090340;28;20048;-75
2021/12/02 02:12:59;;;;;;;6.82;0.85;;;4.10;99.90;;;;;;5073403;28;20040;-75
2021/12/02 02:15:28;;;;;;;11.25;1.10;;;4.00;99.90;;;;;;5091685;28;20054;-75
2021/12/02 02:20:48;;;;;;;9.43;0.98;;;3.80;99.90;;;;;;5090129;28;20052;-75
2021/12/02 02:23:14;;;;;;;7.93;0.90;;;3.80;99.90;;;;;;5082824;28;20063;-75
2021/12/02 02:25:45;;;;;;;5.38;0.93;;;3.70;99.90;;;;;;5073134;28;20584;-75
2021/12/02 02:28:10;;;;;;;6.43;0.93;;;3.60;99.90;;;;;;5091138;28;20047;-75
2021/12/02 02:30:36;;;;;;;6.65;0.60;;;3.60;99.90;;;;;;5090990;28;20044;-75
2021/12/02 02:33:02;;;;;;;5.05;1.23;;;3.60;99.90;;;;;;5090175;28;20390;-75
2021/12/02 02:35:28;;;;;;;9.25;1.10;;;3.60;99.90;;;;;;5087711;28;20425;-75
2021/12/02 02:37:54;;;;;;;8.90;1.00;;;3.60;99.90;;;;;;5088825;28;20408;-75
2021/12/02 02:40:20;;;;;;;7.77;0.80;;;3.50;99.90;;;;;;5075141;28;20403;-75
2021/12/02 02:42:49;;;;;;;5.60;0.80;;;3.50;99.90;;;;;;5069133;28;20407;-75
2021/12/02 02:45:18;;;;;;;7.57;1.02;;;3.50;99.90;;;;;;5068530;28;20929;-75
2021/12/02 02:47:44;;;;;;;8.15;0.90;;;3.50;99.90;;;;;;5069355;28;20439;-75
2021/12/02 02:50:14;;;;;;;5.43;0.50;;;3.50;99.90;;;;;;5069787;28;20045;-75
2021/12/02 02:52:40;;;;;;;5.40;0.40;;;3.50;99.90;;;;;;5069537;28;20403;-75
2021/12/02 02:55:07;;;;;;;3.95;0.40;;;3.50;99.90;;;;;;5069542;28;20048;-75
2021/12/02 02:57:42;;;;;;;4.65;0.40;;;3.60;99.90;;;;;;5085025;28;20044;-75
2021/12/02 03:00:13;;;;;;;9.65;0.63;;;3.50;99.90;;;;;;5089560;28;20043;-75
2021/12/02 03:02:53;;;;;;;5.43;0.50;;;3.50;99.90;;;;;;5090780;28;20052;-75
2021/12/02 03:07:54;;;;;;;4.18;0.45;;;3.50;99.90;;;;;;5088976;28;20417;-75
2021/12/02 03:13:11;;;;;;;4.60;0.30;;;3.60;99.90;;;;;;5090546;28;20140;-75
2021/12/02 03:18:23;;;;;;;2.85;0.30;;;3.50;99.90;;;;;;5090186;28;20586;-75
2021/12/02 03:20:48;;;;;;;4.95;0.30;;;3.50;99.90;;;;;;5088994;28;20127;-75
2021/12/02 03:23:14;;;;;;;3.70;0.50;;;3.50;99.90;;;;;;5089091;28;20044;-75
2021/12/02 03:25:40;;;;;;;2.15;0.30;;;3.50;99.90;;;;;;5088816;28;20040;-75
2021/12/02 03:28:05;;;;;;;2.50;0.38;;;3.50;99.90;;;;;;5090311;28;20043;-75
2021/12/02 03:30:31;;;;;;;2.40;0.20;;;3.40;99.90;;;;;;5089990;28;20044;-75
2021/12/02 03:32:57;;;;;;;3.95;0.38;;;3.40;99.90;;;;;;5089890;28;20044;-75
2021/12/02 03:35:23;;;;;;;2.85;0.30;;;3.40;99.90;;;;;;5088689;28;20437;-75
2021/12/02 03:37:49;;;;;;;4.55;0.85;;;3.30;99.90;;;;;;5089993;28;20044;-75
2021/12/02 03:40:15;;;;;;;3.22;0.35;;;3.40;99.90;;;;;;5088976;28;20604;-75
2021/12/02 03:42:50;;;;;;;3.63;0.30;;;3.40;99.90;;;;;;5089190;28;20044;-75
2021/12/02 03:45:16;;;;;;;6.50;0.50;;;3.40;99.90;;;;;;5088304;28;20149;-75
2021/12/02 03:47:42;;;;;;;1.60;0.28;;;3.40;99.90;;;;;;5087758;28;20118;-75
2021/12/02 03:50:08;;;;;;;2.67;0.47;;;3.40;99.90;;;;;;5088270;28;20094;-74
2021/12/02 03:52:34;;;;;;;5.68;0.40;;;3.40;99.90;;;;;;5071785;28;20102;-75
2021/12/02 03:54:59;;;;;;;6.72;0.70;;;3.40;99.90;;;;;;5071857;28;20502;-75
2021/12/02 03:57:28;;;;;;;3.20;0.68;;;3.50;99.90;;;;;;5089522;28;20422;-75
2021/12/02 03:59:54;;;;;;;6.22;0.70;;;3.50;99.90;;;;;;5071064;28;20056;-75
2021/12/02 04:02:20;;;;;;;3.53;0.68;;;3.50;99.90;;;;;;5088399;28;20607;-75
2021/12/02 04:04:45;;;;;;;2.75;0.20;;;3.40;99.90;;;;;;5088604;28;20032;-75
2021/12/02 04:07:11;;;;;;;7.15;0.93;;;3.40;99.90;;;;;;5088253;28;20063;-75
2021/12/02 04:09:41;;;;;;;2.72;0.40;;;3.40;99.90;;;;;;5087822;28;20047;-75
2021/12/02 04:15:06;;;;;;;;;;;3.30;99.90;;;;;;5088807;28;20134;-75
2021/12/02 04:17:42;;;;;;;;;;;3.30;99.90;;;;;;5088713;28;20408;-75
2021/12/02 04:20:16;;;;;;;3.55;0.30;;;3.20;99.90;;;;;;5087831;28;19970;-75
2021/12/02 04:22:42;;;;;;;;;;;3.10;99.90;;;;;;5089507;28;20050;-75
2021/12/02 04:25:08;;;;;;;;;;;3.10;99.90;;;;;;5088778;28;20805;-75
2021/12/02 04:27:34;;;;;;;;;;;3.00;99.90;;;;;;5088325;28;20016;-74
2021/12/02 04:29:59;;;;;;;2.80;0.20;;;3.00;99.90;;;;;;5087712;28;19920;-74
2021/12/02 04:32:25;;;;;;;3.40;0.28;;;2.90;99.90;;;;;;5087506;28;20051;-75
2021/12/02 04:34:51;;;;;;;1.88;0.30;;;2.80;99.90;;;;;;5088031;28;20032;-75
2021/12/02 04:37:17;;;;;;;3.13;0.20;;;2.80;99.90;;;;;;5088042;28;20638;-75
2021/12/02 04:39:42;;;;;;;0.65;0.08;;;2.70;99.90;;;;;;5088043;28;20134;-75
2021/12/02 04:42:08;;;;;;;1.98;0.20;;;2.60;99.90;;;;;;5071082;28;20654;-75
2021/12/02 04:44:33;;;;;;;3.42;0.68;;;2.70;99.90;;;;;;5087798;28;20048;-75
2021/12/02 04:46:59;;;;;;;1.00;0.10;;;2.60;99.90;;;;;;5087715;28;20444;-75
2021/12/02 04:49:25;;;;;;;4.57;0.55;;;2.50;99.90;;;;;;5087422;28;20039;-75
2021/12/02 04:51:50;;;;;;;1.10;0.10;;;2.50;99.90;;;;;;5070703;28;20465;-75
2021/12/02 04:54:16;;;;;;;2.53;0.20;;;2.50;99.90;;;;;;5087533;28;20039;-75
2021/12/02 04:56:42;;;;;;;3.15;0.40;;;2.50;99.90;;;;;;5086047;28;20398;-75
2021/12/02 04:59:07;;;;;;;2.07;0.20;;;2.40;99.90;;;;;;5086150;28;20442;-75
2021/12/02 05:01:33;;;;;;;2.50;0.15;;;2.40;99.90;;;;;;5085897;28;20405;-75
2021/12/02 05:03:59;;;;;;;2.42;0.20;;;2.40;99.90;;;;;;5086462;28;20390;-75
2021/12/02 05:06:24;;;;;;;1.53;0.20;;;2.40;99.90;;;;;;5086144;28;20912;-75
2021/12/02 05:08:52;;;;;;;3.15;0.40;;;2.40;99.90;;;;;;5085075;28;21495;-74
2021/12/02 05:11:17;;;;;;;2.17;0.10;;;2.40;99.90;;;;;;5087254;28;20131;-75
2021/12/02 05:13:43;;;;;;;2.42;0.20;;;2.30;99.90;;;;;;5087550;28;20044;-75
2021/12/02 05:16:08;;;;;;;2.53;0.20;;;2.30;99.90;;;;;;5086598;28;20052;-75
2021/12/02 05:18:34;;;;;;;;;;;2.30;99.90;;;;;;5087858;28;20139;-75
2021/12/02 05:21:00;;;;;;;;;;;2.30;99.90;;;;;;5088091;28;19920;-74
2021/12/02 05:23:25;;;;;;;;;;;2.30;99.90;;;;;;5071103;28;20346;-74
2021/12/02 05:25:51;;;;;;;;;;;2.30;99.90;;;;;;5087589;28;20014;-74
2021/12/02 05:28:18;;;;;;;;;;;2.30;99.90;;;;;;5087150;28;19963;-74
2021/12/02 05:30:44;;;;;;;;;;;2.40;99.90;;;;;;5080697;28;19920;-74
2021/12/02 05:33:10;;;;;;;;;;;2.40;99.90;;;;;;5067182;28;19925;-74
2021/12/02 05:35:36;;;;;;;;;;;2.40;99.90;;;;;;5067461;28;19924;-74
2021/12/02 05:38:01;;;;;;;;;;;2.50;99.90;;;;;;5067389;28;19947;-74
2021/12/02 05:40:27;;;;;;;;;;;2.40;99.90;;;;;;5067134;28;19920;-74
2021/12/02 05:42:52;;;;;;;1.98;0.10;;;2.40;99.90;;;;;;5066855;28;20020;-74
2021/12/02 05:45:18;;;;;;;1.43;0.10;;;2.40;99.90;;;;;;5065650;28;20997;-74
2021/12/02 05:47:44;;;;;;;3.03;0.30;;;2.40;99.90;;;;;;5048444;28;20500;-74
2021/12/02 05:50:09;;;;;;;2.80;0.30;;;2.40;99.90;;;;;;5065784;28;20474;-75
2021/12/02 05:52:35;;;;;;;2.85;0.10;;;2.40;99.90;;;;;;5050143;28;20713;-74
2021/12/02 05:55:01;;;;;;;2.13;0.20;;;2.40;99.90;;;;;;5050362;28;20048;-75
2021/12/02 05:57:26;;;;;;;3.90;0.20;;;2.40;99.90;;;;;;5066439;28;20517;-75
2021/12/02 05:59:52;;;;;;;1.58;0.10;;;2.30;99.90;;;;;;5066406;28;20115;-75
2021/12/02 06:02:18;;;;;;;1.50;0.20;;;2.30;99.90;;;;;;5051111;28;20044;-75
2021/12/02 06:04:45;;;;;;;1.50;0.10;;;2.30;99.90;;;;;;5051169;28;20388;-75
2021/12/02 06:07:11;;;;;;;1.95;0.30;;;2.30;99.90;;;;;;5063466;28;20413;-75
2021/12/02 06:09:36;;;;;;;4.65;0.90;;;2.30;99.90;;;;;;5088197;28;20131;-75
2021/12/02 06:12:02;;;;;;;0.63;0.10;;;2.30;99.90;;;;;;5074838;28;20139;-75
2021/12/02 06:14:28;;;;;;;4.20;0.45;;;2.30;99.90;;;;;;5091483;28;20058;-75
2021/12/02 06:16:55;;;;;;;2.22;0.20;;;2.30;99.90;;;;;;5074246;28;20044;-75
2021/12/02 06:19:20;;;;;;;0.63;0.10;;;2.20;99.90;;;;;;5091582;28;20060;-75
2021/12/02 06:21:47;;;;;;;2.03;0.20;;;2.20;99.90;;;;;;5091274;28;20040;-75
2021/12/02 06:24:14;;;;;;;3.00;0.25;;;2.30;99.90;;;;;;5074654;28;20709;-74
2021/12/02 06:26:40;;;;;;;2.20;0.38;;;2.20;99.90;;;;;;5091125;28;20040;-75
2021/12/02 06:29:05;;;;;;;2.00;0.47;;;2.30;99.90;;;;;;5090925;28;20132;-75
2021/12/02 06:31:31;;;;;;;2.60;0.30;;;2.30;99.90;;;;;;5094962;28;20651;-75
2021/12/02 06:33:56;;;;;;;3.72;0.35;;;2.20;99.90;;;;;;5094061;28;20035;-75
2021/12/02 06:36:22;;;;;;;5.10;0.43;;;2.30;99.90;;;;;;5094490;28;20036;-75
2021/12/02 06:38:48;;;;;;;1.75;0.52;;;2.30;99.90;;;;;;5094488;28;20427;-75
2021/12/02 06:41:14;;;;;;;4.82;0.43;;;2.20;99.90;;;;;;5077988;28;20048;-75
2021/12/02 06:43:39;;;;;;;3.10;0.57;;;2.20;99.90;;;;;;5094327;28;20039;-75
2021/12/02 06:46:05;;;;;;;5.00;0.80;;;2.20;99.90;;;;;;5094205;28;20050;-75
2021/12/02 06:48:30;;;;;;;2.28;0.50;;;2.20;99.90;;;;;;5093738;28;20040;-75
2021/12/02 06:50:56;;;;;;;3.67;0.52;;;2.20;99.90;;;;;;5077003;28;20035;-75
2021/12/02 06:53:22;;;;;;;1.92;0.50;;;2.20;99.90;;;;;;5092514;28;20176;-73
2021/12/02 06:55:47;;;;;;;2.15;0.57;;;2.20;99.90;;;;;;5092454;28;20511;-73
2021/12/02 06:58:13;;;;;;;1.70;0.60;;;2.20;99.90;;;;;;5092653;28;20050;-72
2021/12/02 07:00:39;;;;;;;4.20;0.82;;;2.20;99.90;;;;;;5110781;28;20044;-77
2021/12/02 07:03:04;;;;;;;2.55;0.68;;;2.20;99.90;;;;;;5110870;28;20066;-74
2021/12/02 07:05:32;;;;;;;2.92;0.90;;;2.20;99.90;;;;;;5075785;28;20043;-74
2021/12/02 07:07:58;;;;;;;5.45;0.90;;;2.20;99.90;;;;;;5075361;28;20454;-76
2021/12/02 07:10:25;;;;;;;3.72;1.05;;;2.20;99.90;;;;;;5076505;28;20094;-74
2021/12/02 07:12:55;;;;;;;4.60;1.00;;;2.10;99.90;;;;;;5092657;28;20505;-74
2021/12/02 07:15:28;;;;;;;5.20;0.95;;;2.00;99.90;;;;;;5074138;28;20566;-75
2021/12/02 07:17:56;;;;;;;9.10;1.33;;;2.00;99.90;;;;;;5084512;28;20124;-74
2021/12/02 07:20:23;;;;;;;4.93;1.15;;;2.00;99.90;;;;;;5075908;28;20051;-74
2021/12/02 07:22:48;;;;;;;6.88;1.08;;;1.90;99.90;;;;;;5073418;28;20542;-75
2021/12/02 07:25:14;;;;;;;7.30;1.00;;;1.90;99.90;;;;;;5071989;28;20036;-75
2021/12/02 07:27:41;;;;;;;4.97;0.90;;;1.80;99.90;;;;;;5085853;28;20040;-75
2021/12/02 07:30:08;;;;;;;3.30;0.60;;;1.80;99.90;;;;;;5092265;28;20052;-74
2021/12/02 07:32:37;;;;;;;4.32;0.68;;;1.80;99.90;;;;;;5091777;28;20506;-76
2021/12/02 07:35:07;;;;;;;2.35;0.88;;;1.80;99.90;;;;;;5069966;28;20048;-76
2021/12/02 07:37:34;;;;;;;4.22;0.47;;;1.70;99.90;;;;;;5084787;28;20123;-76
2021/12/02 07:40:01;;;;;;;4.97;0.82;;;1.70;99.90;;;;;;5077396;28;20489;-76
2021/12/02 07:42:26;;;;;;;8.32;0.77;;;1.70;99.90;;;;;;5091925;28;20409;-76
2021/12/02 07:44:52;;;;;;;3.42;0.70;;;1.60;99.90;;;;;;5091817;28;20048;-75
2021/12/02 07:47:19;;;;;;;5.90;0.95;;;1.60;99.90;;;;;;5074563;28;20055;-76
2021/12/02 07:49:48;;;;;;;2.58;0.55;;;1.60;99.90;;;;;;5071227;28;20469;-76
2021/12/02 07:52:15;;;;;;;7.82;1.08;;;1.60;99.90;;;;;;5086913;28;20054;-76
2021/12/02 07:54:42;;;;;;;6.57;0.40;;;1.60;99.90;;;;;;5090811;28;20050;-77
2021/12/02 07:57:10;;;;;;;1.80;0.40;;;1.60;99.90;;;;;;5091759;28;20497;-77
2021/12/02 07:59:37;;;;;;;3.55;0.40;;;1.60;99.90;;;;;;5091268;28;20058;-77
2021/12/02 08:02:04;;;;;;;2.80;1.05;;;1.60;99.90;;;;;;5075154;28;20048;-76
2021/12/02 08:04:29;;;;;;;4.53;0.57;;;1.60;99.90;;;;;;5091296;28;20051;-76
2021/12/02 08:06:55;;;;;;;3.03;0.68;;;1.60;99.90;;;;;;5073915;28;20046;-75
2021/12/02 08:09:21;;;;;;;4.30;0.80;;;1.60;99.90;;;;;;5090593;28;20051;-75
2021/12/02 08:11:46;;;;;;;4.88;1.02;;;1.60;99.90;;;;;;5091708;28;20164;-75
2021/12/02 08:14:15;;;;;;;8.18;1.20;;;1.60;99.90;;;;;;5091500;28;20079;-76
2021/12/02 08:16:41;;;;;;;4.60;1.45;;;1.60;99.90;;;;;;5090409;28;20047;-75
2021/12/02 08:19:07;;;;;;;4.22;1.35;;;1.60;99.90;;;;;;5091272;28;20402;-75
2021/12/02 08:21:33;;;;;;;5.25;1.70;;;1.60;99.90;;;;;;5091121;28;20039;-76
2021/12/02 08:23:58;;;;;;;9.13;1.65;;;1.70;99.90;;;;;;5090888;28;20043;-76
2021/12/02 08:26:24;;;;;;;7.03;1.90;;;1.70;99.90;;;;;;5090877;28;20154;-75
2021/12/02 08:28:50;;;;;;;6.65;2.10;;;1.80;99.90;;;;;;5090749;28;20048;-75
2021/12/02 08:31:16;;;;;;;9.63;2.20;;;1.80;99.90;;;;;;5091252;28;20193;-75
2021/12/02 08:33:42;;;;;;;5.93;1.42;;;1.90;99.90;;;;;;5090527;28;20055;-75
2021/12/02 08:36:08;;;;;;;3.47;1.33;;;2.00;99.90;;;;;;5091422;28;20465;-75
2021/12/02 08:38:36;;;;;;;3.58;1.58;;;2.10;99.90;;;;;;5091034;28;20062;-75
2021/12/02 08:41:02;;;;;;;7.45;1.02;;;2.20;99.90;;;;;;5091139;28;20047;-76
2021/12/02 08:43:29;;;;;;;6.43;1.73;;;2.20;99.90;;;;;;5090457;28;20044;-76
2021/12/02 08:45:55;;;;;;;2.28;0.50;;;2.30;99.90;;;;;;5091119;28;20425;-75
2021/12/02 08:48:21;;;;;;;2.33;0.50;;;2.40;99.90;;;;;;5090651;28;20055;-74
2021/12/02 08:50:47;;;;;;;3.65;1.20;;;2.40;99.90;;;;;;5090831;28;20405;-76
2021/12/02 08:53:14;;;;;;;5.68;0.93;;;2.40;99.90;;;;;;5073243;28;20058;-75
2021/12/02 08:55:39;;;;;;;3.50;0.52;;;2.50;99.90;;;;;;5090467;28;20100;-76
2021/12/02 08:58:09;;;;;;;2.95;0.60;;;2.50;99.90;;;;;;5108316;28;20459;-75
2021/12/02 09:00:36;;;;;;;2.50;0.90;;;2.50;99.90;;;;;;5108691;28;20134;-73
2021/12/02 09:03:04;;;;;;;4.38;0.60;;;2.50;99.90;;;;;;5108964;28;20125;-73
2021/12/02 09:05:30;;;;;;;2.35;0.40;;;2.60;99.90;;;;;;5108472;28;20809;-73
2021/12/02 09:07:56;;;;;;;3.50;0.50;;;2.60;99.90;;;;;;5089486;28;20052;-74
2021/12/02 09:10:22;;;;;;;3.70;0.70;;;2.70;99.90;;;;;;5090632;28;20035;-75
2021/12/02 09:12:49;;;;;;;5.15;1.30;;;2.70;99.90;;;;;;5090151;28;20034;-75
2021/12/02 09:15:15;;;;;;;;;;;2.90;99.90;;;;;;5086827;28;20174;-74
2021/12/02 09:17:41;;;;;;;;;;;3.00;99.90;;;;;;5073131;28;20006;-75
2021/12/02 09:20:07;;;;;;;;;;;3.10;99.90;;;;;;5089812;28;20463;-75
2021/12/02 09:22:33;;;;;;;;;;;3.10;99.90;;;;;;5090799;28;19924;-75
2021/12/02 09:24:58;;;;;;;;;;;3.20;99.90;;;;;;5090826;28;19932;-76
2021/12/02 09:27:24;;;;;;;;;;;3.20;99.90;;;;;;5090434;28;20392;-76
2021/12/02 09:29:49;;;;;;;;;;;3.10;99.90;;;;;;5089431;28;19923;-76
2021/12/02 09:32:15;;;;;;;;;;;3.10;99.90;;;;;;5071998;28;20397;-75
2021/12/02 09:34:41;;;;;;;;;;;3.10;99.90;;;;;;5072770;28;20004;-76
2021/12/02 09:37:06;;;;;;;;;;;3.10;99.90;;;;;;5090338;28;19919;-76
2021/12/02 09:39:34;;;;;;;;;;;3.10;99.90;;;;;;5073124;28;20016;-76
2021/12/02 09:42:00;;;;;;;;;;;3.10;99.90;;;;;;5073645;28;19924;-75
2021/12/02 09:44:25;;;;;;;;;;;3.10;99.90;;;;;;5092412;28;19920;-75
2021/12/02 09:46:52;;;;;;;;;;;3.10;99.90;;;;;;5077624;28;20281;-75
2021/12/02 09:49:17;;;;;;;;;;;3.00;99.90;;;;;;5095011;28;19970;-76
2021/12/02 09:54:15;;;;;;;;;;;3.00;99.90;;;;;;5094381;28;19927;-76
2021/12/02 09:56:43;;;;;;;;;;;2.90;99.90;;;;;;5094284;28;19923;-76
2021/12/02 09:59:12;;;;;;;;;;;2.90;99.90;;;;;;5094199;28;19920;-75
2021/12/02 10:01:44;;;;;;;;;;;3.00;99.90;;;;;;5093946;28;19943;-76
2021/12/02 10:04:12;;;;;;;;;;;3.00;99.90;;;;;;5095036;28;19974;-76
2021/12/02 10:06:40;;;;;;;;;;;3.00;99.90;;;;;;5093606;28;19927;-76
2021/12/02 10:09:12;;;;;;;;;;;3.00;99.90;;;;;;5073175;28;19924;-75
2021/12/02 10:11:50;;;;;;;;;;;3.00;99.90;;;;;;5093950;28;20190;-75
2021/12/02 10:14:27;;;;;;;;;;;3.00;99.90;;;;;;5108581;28;19973;-75
2021/12/02 10:17:10;;;;;;;;;;;3.10;99.90;;;;;;5093972;28;19926;-75
2021/12/02 10:19:36;;;;;;;;;;;3.10;99.90;;;;;;5093060;28;19935;-75
2021/12/02 10:24:28;;;;;;;;;;;3.30;99.90;;;;;;5094120;28;19920;-76
2021/12/02 10:26:58;;;;;;;;;;;3.40;99.90;;;;;;5077300;28;19923;-76
2021/12/02 10:29:27;;;;;;;;;;;3.50;99.90;;;;;;5094146;28;19984;-76
2021/12/02 10:32:07;;;;;;;;;;;3.70;99.90;;;;;;5093431;28;19919;-77
2021/12/02 10:34:44;;;;;;;;;;;4.00;99.90;;;;;;5093966;28;19919;-77
2021/12/02 10:37:10;;;;;;;;;;;4.30;99.90;;;;;;5087544;28;19924;-77
2021/12/02 10:39:36;;;;;;;;;;;4.40;99.90;;;;;;5076980;28;20267;-77
2021/12/02 10:42:05;;;;;;;;;;;4.40;99.90;;;;;;5093161;28;20125;-77
2021/12/02 10:44:34;;;;;;;;;;;4.20;99.90;;;;;;5088611;28;19920;-77
2021/12/02 10:47:04;;;;;;;;;;;4.10;99.90;;;;;;5088172;28;20388;-77
2021/12/02 10:49:31;;;;;;;;;;;3.90;99.90;;;;;;5092359;28;19924;-76
2021/12/02 10:52:02;;;;;;;;;;;3.70;99.90;;;;;;5091789;28;19928;-76
2021/12/02 10:54:30;;;;;;;;;;;3.50;99.90;;;;;;5087904;28;19920;-76
2021/12/02 10:56:59;;;;;;;3.30;0.30;;;3.30;99.90;;;;;;5110146;28;19919;-76
2021/12/02 10:59:32;;;;;;;;;;;3.00;99.90;;;;;;5092758;28;20421;-76
2021/12/02 11:02:03;;;;;;;;;;;2.90;99.90;;;;;;5093247;28;20018;-76
2021/12/02 11:04:40;;;;;;;;;;;2.70;99.90;;;;;;5093364;28;19924;-75
2021/12/02 11:07:10;;;;;;;;;;;2.60;99.90;;;;;;5092757;28;19920;-75
2021/12/02 11:09:36;;;;;;;;;;;2.50;99.90;;;;;;5092382;28;20026;-75
2021/12/02 11:12:13;;;;;;;;;;;2.30;99.90;;;;;;5093127;28;19923;-75
2021/12/02 11:14:39;;;;;;;;;;;2.30;99.90;;;;;;5092411;28;20392;-75
2021/12/02 11:17:15;;;;;;;;;;;2.30;99.90;;;;;;5111690;28;19927;-75
2021/12/02 11:19:43;;;;;;;;;;;2.20;99.90;;;;;;5111892;28;19964;-76
2021/12/02 11:22:10;;;;;;;;;;;2.20;99.90;;;;;;5075425;28;20018;-75
2021/12/02 11:24:36;;;;;;;;;;;2.30;99.90;;;;;;5090088;28;19920;-75
2021/12/02 11:27:14;;;;;;;;;;;2.30;99.90;;;;;;5093256;28;20018;-76
2021/12/02 11:29:46;;;;;;;;;;;2.30;99.90;;;;;;5093073;28;19965;-75
2021/12/02 11:32:25;;;;;;;;;;;2.30;99.90;;;;;;5093360;28;19924;-77
2021/12/02 11:34:59;;;;;;;;;;;2.40;99.90;;;;;;5093977;28;20357;-77
2021/12/02 11:37:26;;;;;;;;;;;2.40;99.90;;;;;;5093287;28;19920;-75
2021/12/02 11:39:53;;;;;;;;;;;2.50;99.90;;;;;;5091455;28;20549;-75
2021/12/02 11:42:18;;;;;;;;;;;2.60;99.90;;;;;;5092930;28;19926;-74
2021/12/02 11:44:44;;;;;;;;;;;2.70;99.90;;;;;;5090784;28;19923;-74
2021/12/02 11:47:10;;;;;;;;;;;2.70;99.90;;;;;;5091559;28;19947;-74
2021/12/02 11:49:35;;;;;;;;;;;2.70;99.90;;;;;;5089483;28;19924;-75
2021/12/02 11:52:01;;;;;;;;;;;2.80;99.90;;;;;;5093535;28;19927;-74
2021/12/02 11:54:27;;;;;;;;;;;2.70;99.90;;;;;;5093056;28;19920;-75
2021/12/02 11:56:53;;;;;;;;;;;2.60;99.90;;;;;;5093186;28;20006;-74
2021/12/02 11:59:20;;;;;;;;;;;2.50;99.90;;;;;;5093431;28;20014;-74
2021/12/02 12:01:46;;;;;;;;;;;2.40;99.90;;;;;;5091631;28;19927;-74
2021/12/02 12:04:13;;;;;;;;;;;2.20;99.90;;;;;;5110799;28;20301;-74
2021/12/02 12:06:41;;;;;;;;;;;2.00;99.90;;;;;;5110618;28;19928;-74
2021/12/02 12:09:10;;;;;;;;;;;1.90;99.90;;;;;;5092999;28;19964;-74
2021/12/02 12:11:38;;;;;;;;;;;1.80;99.90;;;;;;5092898;28;19919;-74
2021/12/02 12:14:04;;;;;;;;;;;1.80;99.90;;;;;;5092278;28;19919;-74
2021/12/02 12:16:38;;;;;;;;;;;1.80;99.90;;;;;;5091941;28;20374;-74
2021/12/02 12:19:21;;;;;;;;;;;1.80;99.90;;;;;;5091748;28;19920;-75
2021/12/02 12:21:51;;;;;;;;;;;1.80;99.90;;;;;;5075335;28;19927;-74
2021/12/02 12:24:17;;;;;;;;;;;1.90;99.90;;;;;;5092448;28;19969;-75
2021/12/02 12:26:45;;;;;;;;;;;2.00;99.90;;;;;;5092629;28;20374;-74
2021/12/02 12:29:13;;;;;;;;;;;2.00;99.90;;;;;;5074354;28;20370;-74
2021/12/02 12:31:48;;;;;;;;;;;2.00;99.90;;;;;;5096219;28;19927;-74
2021/12/02 12:34:26;;;;;;;;;;;2.10;99.90;;;;;;5092214;28;19924;-74
2021/12/02 12:36:51;;;;;;;;;;;2.20;99.90;;;;;;5092119;28;19919;-74
2021/12/02 12:39:18;;;;;;;;;;;2.20;99.90;;;;;;5090565;28;20477;-74
2021/12/02 12:42:06;;;;;;;;;;;2.20;99.90;;;;;;5091925;28;19931;-75
2021/12/02 12:44:45;;;;;;;;;;;2.30;99.90;;;;;;5091770;28;20012;-74
2021/12/02 12:47:10;;;;;;;;;;;2.30;99.90;;;;;;5092276;28;20002;-74
2021/12/02 12:49:36;;;;;;;;;;;2.70;99.90;;;;;;5089486;28;20011;-75
2021/12/02 12:52:13;;;;;;;;;;;3.00;99.90;;;;;;5086926;28;19926;-75
2021/12/02 12:54:40;;;;;;;;;;;3.20;99.90;;;;;;5087623;28;19951;-75
2021/12/02 12:57:06;;;;;;;;;;;3.50;99.90;;;;;;5072579;28;19920;-75
2021/12/02 12:59:47;;;;;;;;;;;3.90;99.90;;;;;;5090287;28;19994;-75
2021/12/02 13:02:15;;;;;;;;;;;4.10;99.90;;;;;;5090966;28;19983;-75
2021/12/02 13:04:48;;;;;;;;;;;4.30;99.90;;;;;;5092223;28;19949;-75
2021/12/02 13:07:16;;;;;;;;;;;4.20;99.90;;;;;;5108022;28;19923;-74
2021/12/02 13:09:53;;;;;;;;;;;4.10;99.90;;;;;;5088606;28;19973;-75
2021/12/02 13:12:20;;;;;;;;;;;4.20;99.90;;;;;;5107840;28;20520;-75
2021/12/02 13:14:50;;;;;;;;;;;4.20;99.90;;;;;;5070795;28;19926;-74
2021/12/02 13:17:35;;;;;;;;;;;4.10;99.90;;;;;;5092470;28;19919;-74
2021/12/02 13:20:12;;;;;;;;;;;4.00;99.90;;;;;;5090779;28;19962;-74
2021/12/02 13:22:38;;;;;;;;;;;3.80;99.90;;;;;;5089192;28;19928;-75
2021/12/02 13:25:22;;;;;;;;;;;3.60;99.90;;;;;;5095895;28;20292;-74
2021/12/02 13:27:49;;;;;;;;;;;3.50;99.90;;;;;;5108461;28;19967;-75
2021/12/02 13:30:14;;;;;;;;;;;3.40;99.90;;;;;;5089444;28;20325;-75
2021/12/02 13:32:46;;;;;;;;;;;3.40;99.90;;;;;;5090956;28;19920;-74
2021/12/02 13:35:22;;;;;;;;;;;3.40;99.90;;;;;;5090417;28;19942;-74
2021/12/02 13:37:57;;;;;;;;;;;3.30;99.90;;;;;;5108980;28;20364;-75
2021/12/02 13:40:23;;;;;;;;;;;3.10;99.90;;;;;;5082966;28;20297;-74
2021/12/02 13:42:57;;;;;;;;;;;3.20;99.90;;;;;;5074279;28;19919;-75
2021/12/02 13:45:25;;;;;;;;;;;3.20;99.90;;;;;;5091571;28;19963;-74
2021/12/02 13:47:50;;;;;;;;;;;3.20;99.90;;;;;;5094014;28;20580;-74
2021/12/02 13:50:19;;;;;;;;;;;3.40;99.90;;;;;;5091181;28;19950;-75
2021/12/02 13:52:52;;;;;;;;;;;3.60;99.90;;;;;;5090878;28;19930;-74
2021/12/02 13:55:22;;;;;;;;;;;3.60;99.90;;;;;;5091315;28;20502;-75
2021/12/02 13:57:50;;;;;;;;;;;3.70;99.90;;;;;;5094573;28;19924;-75
2021/12/02 14:00:24;;;;;;;;;;;3.70;99.90;;;;;;5090097;28;19930;-75
2021/12/02 14:02:51;;;;;;;;;;;3.90;99.90;;;;;;5074085;28;19954;-75